createdAt,value
2016-09-19T00:00:22.120Z,0
2016-09-19T00:01:21.798Z,0
2016-09-19T00:02:21.814Z,0
2016-09-19T00:03:21.816Z,0
2016-09-19T00:04:21.826Z,0
2016-09-19T00:05:21.968Z,0
2016-09-19T00:06:21.970Z,0
2016-09-19T00:07:21.986Z,0
2016-09-19T00:08:21.992Z,0
2016-09-19T00:09:22.000Z,0
2016-09-19T00:10:22.007Z,0
2016-09-19T00:11:22.004Z,0
2016-09-19T00:12:22.024Z,0
2016-09-19T00:13:21.987Z,0
2016-09-19T00:14:21.996Z,0
2016-09-19T00:15:22.016Z,0
2016-09-19T00:16:22.006Z,0
2016-09-19T00:17:22.031Z,0
2016-09-19T00:18:22.050Z,0
2016-09-19T00:19:22.072Z,0
2016-09-19T00:20:22.096Z,0
2016-09-19T00:21:22.132Z,0
2016-09-19T00:22:22.137Z,0
2016-09-19T00:23:22.165Z,0
2016-09-19T00:24:22.508Z,0
2016-09-19T00:25:22.205Z,0
2016-09-19T00:26:22.235Z,0
2016-09-19T00:27:22.248Z,0
2016-09-19T00:28:22.274Z,0
2016-09-19T00:29:22.296Z,0
2016-09-19T00:30:22.316Z,0
2016-09-19T00:31:22.345Z,0
2016-09-19T00:32:22.368Z,0
2016-09-19T00:33:22.384Z,0
2016-09-19T00:34:22.401Z,0
2016-09-19T00:35:22.445Z,0
2016-09-19T00:36:22.444Z,0
2016-09-19T00:37:22.480Z,0
2016-09-19T00:38:22.503Z,0
2016-09-19T00:39:22.525Z,0
2016-09-19T00:40:22.547Z,0
2016-09-19T00:41:22.570Z,0
2016-09-19T00:42:22.593Z,0
2016-09-19T00:43:22.612Z,0
2016-09-19T00:44:22.639Z,0
2016-09-19T00:45:22.975Z,0
2016-09-19T00:46:22.684Z,0
2016-09-19T00:47:22.697Z,0
2016-09-19T00:48:22.721Z,0
2016-09-19T00:49:23.065Z,0
2016-09-19T00:50:22.767Z,0
2016-09-19T00:51:22.791Z,0
2016-09-19T00:52:22.812Z,0
2016-09-19T00:53:22.886Z,0
2016-09-19T00:54:22.861Z,0
2016-09-19T00:55:22.873Z,0
2016-09-19T00:56:22.901Z,0
2016-09-19T00:57:22.917Z,0
2016-09-19T00:58:22.951Z,0
2016-09-19T00:59:22.969Z,0
2016-09-19T01:00:22.998Z,0
2016-09-19T01:01:23.021Z,0
2016-09-19T01:02:23.026Z,0
2016-09-19T01:03:23.060Z,0
2016-09-19T01:04:23.078Z,0
2016-09-19T01:05:23.103Z,0
2016-09-19T01:06:23.121Z,0
2016-09-19T01:07:23.460Z,0
2016-09-19T01:08:23.170Z,0
2016-09-19T01:09:23.185Z,0
2016-09-19T01:10:23.214Z,0
2016-09-19T01:11:23.239Z,0
2016-09-19T01:12:23.260Z,0
2016-09-19T01:13:23.282Z,0
2016-09-19T01:14:23.295Z,0
2016-09-19T01:15:23.321Z,0
2016-09-19T01:16:23.343Z,0
2016-09-19T01:17:23.367Z,0
2016-09-19T01:18:23.387Z,0
2016-09-19T01:19:23.403Z,0
2016-09-19T01:20:23.440Z,0
2016-09-19T01:21:23.450Z,0
2016-09-19T01:22:23.481Z,0
2016-09-19T01:23:23.494Z,0
2016-09-19T01:24:23.830Z,0
2016-09-19T01:25:23.549Z,0
2016-09-19T01:26:23.685Z,0
2016-09-19T01:27:23.705Z,0
2016-09-19T01:28:23.691Z,0
2016-09-19T01:29:23.837Z,0
2016-09-19T01:30:23.837Z,0
2016-09-19T01:31:23.852Z,0
2016-09-19T01:32:23.868Z,0
2016-09-19T01:33:23.866Z,0
2016-09-19T01:34:23.879Z,0
2016-09-19T01:35:23.882Z,0
2016-09-19T01:36:23.896Z,0
2016-09-19T01:37:24.343Z,0
2016-09-19T01:38:24.041Z,0
2016-09-19T01:39:24.048Z,0
2016-09-19T01:40:24.372Z,0
2016-09-19T01:41:24.065Z,0
2016-09-19T01:42:24.013Z,0
2016-09-19T01:43:24.019Z,0
2016-09-19T01:44:24.036Z,0
2016-09-19T01:45:24.040Z,0
2016-09-19T01:46:24.066Z,0
2016-09-19T01:47:24.064Z,0
2016-09-19T01:48:24.071Z,0
2016-09-19T01:49:24.087Z,0
2016-09-19T01:50:24.108Z,0
2016-09-19T01:51:24.128Z,0
2016-09-19T01:52:24.152Z,0
2016-09-19T01:53:24.161Z,0
2016-09-19T01:54:24.220Z,0
2016-09-19T01:55:24.523Z,0
2016-09-19T01:56:24.223Z,0
2016-09-19T01:57:24.253Z,0
2016-09-19T01:58:24.277Z,0
2016-09-19T01:59:24.295Z,0
2016-09-19T02:00:24.326Z,0
2016-09-19T02:01:24.342Z,0
2016-09-19T02:02:24.369Z,0
2016-09-19T02:03:24.384Z,0
2016-09-19T02:04:24.415Z,0
2016-09-19T02:05:24.428Z,0
2016-09-19T02:06:24.452Z,0
2016-09-19T02:07:24.479Z,0
2016-09-19T02:08:24.494Z,0
2016-09-19T02:09:24.519Z,0
2016-09-19T02:10:24.551Z,0
2016-09-19T02:11:24.560Z,0
2016-09-19T02:12:24.587Z,0
2016-09-19T02:13:24.603Z,0
2016-09-19T02:14:24.635Z,0
2016-09-19T02:15:24.658Z,0
2016-09-19T02:16:24.673Z,0
2016-09-19T02:17:24.689Z,0
2016-09-19T02:18:24.712Z,0
2016-09-19T02:19:24.741Z,0
2016-09-19T02:20:24.754Z,0
2016-09-19T02:21:24.783Z,0
2016-09-19T02:22:24.808Z,0
2016-09-19T02:23:24.832Z,0
2016-09-19T02:24:25.168Z,0
2016-09-19T02:25:24.872Z,0
2016-09-19T02:26:24.890Z,0
2016-09-19T02:27:24.913Z,0
2016-09-19T02:28:24.941Z,0
2016-09-19T02:29:24.960Z,0
2016-09-19T02:30:24.979Z,0
2016-09-19T02:31:25.012Z,0
2016-09-19T02:32:25.024Z,0
2016-09-19T02:33:25.045Z,0
2016-09-19T02:34:25.058Z,0
2016-09-19T02:35:25.088Z,0
2016-09-19T02:36:25.460Z,0
2016-09-19T02:37:25.147Z,0
2016-09-19T02:38:25.159Z,0
2016-09-19T02:39:25.173Z,0
2016-09-19T02:40:25.209Z,0
2016-09-19T02:41:25.220Z,0
2016-09-19T02:42:25.249Z,0
2016-09-19T02:43:25.275Z,0
2016-09-19T02:44:25.294Z,0
2016-09-19T02:45:25.309Z,0
2016-09-19T02:46:25.328Z,0
2016-09-19T02:47:25.388Z,0
2016-09-19T02:48:25.370Z,0
2016-09-19T02:49:25.397Z,0
2016-09-19T02:50:25.420Z,0
2016-09-19T02:51:25.445Z,0
2016-09-19T02:52:25.465Z,0
2016-09-19T02:53:25.529Z,0
2016-09-19T02:54:25.507Z,0
2016-09-19T02:55:25.526Z,0
2016-09-19T02:56:25.549Z,0
2016-09-19T02:57:25.577Z,0
2016-09-19T02:58:25.721Z,0
2016-09-19T02:59:25.623Z,0
2016-09-19T03:00:25.633Z,0
2016-09-19T03:01:25.663Z,0
2016-09-19T03:02:25.685Z,0
2016-09-19T03:03:26.016Z,0
2016-09-19T03:04:25.733Z,0
2016-09-19T03:05:25.837Z,0
2016-09-19T03:06:25.861Z,0
2016-09-19T03:07:25.891Z,0
2016-09-19T03:08:25.886Z,0
2016-09-19T03:09:26.254Z,0
2016-09-19T03:10:25.950Z,0
2016-09-19T03:11:26.075Z,0
2016-09-19T03:12:25.979Z,0
2016-09-19T03:13:25.998Z,0
2016-09-19T03:14:25.994Z,0
2016-09-19T03:15:25.998Z,0
2016-09-19T03:16:26.005Z,0
2016-09-19T03:17:26.021Z,0
2016-09-19T03:18:26.030Z,0
2016-09-19T03:19:26.368Z,0
2016-09-19T03:20:26.077Z,0
2016-09-19T03:21:26.106Z,0
2016-09-19T03:22:26.119Z,0
2016-09-19T03:23:26.146Z,0
2016-09-19T03:24:26.182Z,0
2016-09-19T03:25:26.500Z,0
2016-09-19T03:26:26.213Z,0
2016-09-19T03:27:26.232Z,0
2016-09-19T03:28:26.252Z,0
2016-09-19T03:29:26.275Z,0
2016-09-19T03:30:26.303Z,0
2016-09-19T03:31:26.633Z,0
2016-09-19T03:32:26.336Z,0
2016-09-19T03:33:26.358Z,0
2016-09-19T03:34:26.389Z,0
2016-09-19T03:35:26.406Z,0
2016-09-19T03:36:26.432Z,0
2016-09-19T03:37:26.449Z,0
2016-09-19T03:38:26.472Z,0
2016-09-19T03:39:26.499Z,0
2016-09-19T03:40:26.528Z,0
2016-09-19T03:41:26.853Z,0
2016-09-19T03:42:26.564Z,0
2016-09-19T03:43:26.585Z,0
2016-09-19T03:44:26.607Z,0
2016-09-19T03:45:26.633Z,0
2016-09-19T03:46:26.651Z,0
2016-09-19T03:47:26.669Z,0
2016-09-19T03:48:26.692Z,0
2016-09-19T03:49:26.703Z,0
2016-09-19T03:50:26.736Z,0
2016-09-19T03:51:26.760Z,0
2016-09-19T03:52:26.784Z,0
2016-09-19T03:53:26.847Z,0
2016-09-19T03:54:27.140Z,0
2016-09-19T03:55:26.843Z,0
2016-09-19T03:56:27.188Z,0
2016-09-19T03:57:26.892Z,0
2016-09-19T03:58:26.908Z,0
2016-09-19T03:59:26.938Z,0
2016-09-19T04:00:26.962Z,0
2016-09-19T04:01:26.978Z,0
2016-09-19T04:02:27.000Z,0
2016-09-19T04:03:27.024Z,0
2016-09-19T04:04:27.039Z,0
2016-09-19T04:05:27.057Z,0
2016-09-19T04:06:27.086Z,0
2016-09-19T04:07:27.102Z,0
2016-09-19T04:08:27.143Z,0
2016-09-19T04:09:27.167Z,0
2016-09-19T04:10:27.204Z,0
2016-09-19T04:11:27.202Z,0
2016-09-19T04:12:27.208Z,0
2016-09-19T04:13:27.240Z,0
2016-09-19T04:14:27.260Z,0
2016-09-19T04:15:27.285Z,0
2016-09-19T04:16:27.300Z,0
2016-09-19T04:17:27.322Z,0
2016-09-19T04:18:27.355Z,0
2016-09-19T04:19:27.371Z,0
2016-09-19T04:20:27.391Z,0
2016-09-19T04:21:27.410Z,0
2016-09-19T04:22:27.435Z,0
2016-09-19T04:23:27.477Z,0
2016-09-19T04:24:27.483Z,0
2016-09-19T04:25:27.619Z,0
2016-09-19T04:26:27.631Z,0
2016-09-19T04:27:27.625Z,0
2016-09-19T04:28:27.662Z,0
2016-09-19T04:29:27.680Z,0
2016-09-19T04:30:27.922Z,0
2016-09-19T04:31:27.843Z,0
2016-09-19T04:32:27.856Z,0
2016-09-19T04:33:27.862Z,0
2016-09-19T04:34:27.926Z,0
2016-09-19T04:35:27.926Z,0
2016-09-19T04:36:27.922Z,0
2016-09-19T04:37:28.239Z,0
2016-09-19T04:38:27.932Z,0
2016-09-19T04:39:27.948Z,0
2016-09-19T04:40:27.981Z,0
2016-09-19T04:41:27.963Z,0
2016-09-19T04:42:27.965Z,0
2016-09-19T04:43:27.963Z,0
2016-09-19T04:44:27.979Z,0
2016-09-19T04:45:28.339Z,0
2016-09-19T04:46:28.038Z,0
2016-09-19T04:47:27.977Z,0
2016-09-19T04:48:28.004Z,0
2016-09-19T04:49:28.024Z,0
2016-09-19T04:50:28.040Z,0
2016-09-19T04:51:28.074Z,0
2016-09-19T04:52:28.108Z,0
2016-09-19T04:53:28.467Z,0
2016-09-19T04:54:28.133Z,0
2016-09-19T04:55:28.148Z,0
2016-09-19T04:56:28.185Z,0
2016-09-19T04:57:28.198Z,0
2016-09-19T04:58:28.213Z,0
2016-09-19T04:59:28.251Z,0
2016-09-19T05:00:28.268Z,0
2016-09-19T05:01:28.282Z,0
2016-09-19T05:02:28.302Z,0
2016-09-19T05:03:28.333Z,0
2016-09-19T05:04:28.341Z,0
2016-09-19T05:05:28.371Z,0
2016-09-19T05:06:28.392Z,0
2016-09-19T05:07:28.414Z,0
2016-09-19T05:08:28.439Z,0
2016-09-19T05:09:28.564Z,0
2016-09-19T05:10:28.570Z,0
2016-09-19T05:11:29.040Z,0
2016-09-19T05:12:28.736Z,0
2016-09-19T05:13:28.747Z,0
2016-09-19T05:14:28.997Z,0
2016-09-19T05:15:28.673Z,0
2016-09-19T05:16:28.680Z,0
2016-09-19T05:17:28.695Z,0
2016-09-19T05:18:28.706Z,0
2016-09-19T05:19:28.702Z,0
2016-09-19T05:20:28.714Z,0
2016-09-19T05:21:28.719Z,0
2016-09-19T05:22:28.755Z,0
2016-09-19T05:23:28.762Z,0
2016-09-19T05:24:28.787Z,0
2016-09-19T05:25:29.113Z,0
2016-09-19T05:26:28.830Z,0
2016-09-19T05:27:29.191Z,0
2016-09-19T05:28:28.870Z,0
2016-09-19T05:29:29.208Z,0
2016-09-19T05:30:28.922Z,0
2016-09-19T05:31:28.935Z,0
2016-09-19T05:32:28.961Z,0
2016-09-19T05:33:28.993Z,0
2016-09-19T05:34:28.995Z,0
2016-09-19T05:35:29.026Z,0
2016-09-19T05:36:29.365Z,0
2016-09-19T05:37:29.067Z,0
2016-09-19T05:38:29.089Z,0
2016-09-19T05:39:29.113Z,0
2016-09-19T05:40:29.139Z,0
2016-09-19T05:41:29.486Z,0
2016-09-19T05:42:29.175Z,0
2016-09-19T05:43:29.193Z,0
2016-09-19T05:44:29.217Z,0
2016-09-19T05:45:29.269Z,0
2016-09-19T05:46:29.253Z,0
2016-09-19T05:47:29.287Z,0
2016-09-19T05:48:29.310Z,0
2016-09-19T05:49:29.329Z,0
2016-09-19T05:50:29.658Z,0
2016-09-19T05:51:29.375Z,0
2016-09-19T05:52:29.395Z,0
2016-09-19T05:53:29.467Z,0
2016-09-19T05:54:29.439Z,0
2016-09-19T05:55:29.448Z,0
2016-09-19T05:56:29.476Z,0
2016-09-19T05:57:29.506Z,0
2016-09-19T05:58:29.527Z,0
2016-09-19T05:59:29.541Z,0
2016-09-19T06:00:29.565Z,0
2016-09-19T06:01:29.609Z,0
2016-09-19T06:02:29.609Z,0
2016-09-19T06:03:29.630Z,0
2016-09-19T06:04:29.656Z,0
2016-09-19T06:05:29.672Z,0
2016-09-19T06:06:29.694Z,0
2016-09-19T06:07:30.025Z,0
2016-09-19T06:08:29.741Z,0
2016-09-19T06:09:29.764Z,0
2016-09-19T06:10:29.786Z,0
2016-09-19T06:11:29.804Z,0
2016-09-19T06:12:29.828Z,0
2016-09-19T06:13:29.846Z,0
2016-09-19T06:14:29.865Z,0
2016-09-19T06:15:29.888Z,0
2016-09-19T06:16:29.912Z,0
2016-09-19T06:17:29.934Z,5
2016-09-19T06:18:29.960Z,5
2016-09-19T06:19:29.976Z,5
2016-09-19T06:20:30.005Z,5
2016-09-19T06:21:30.014Z,5
2016-09-19T06:22:30.045Z,5
2016-09-19T06:23:30.065Z,5
2016-09-19T06:24:30.196Z,5
2016-09-19T06:25:30.122Z,5
2016-09-19T06:26:30.126Z,5
2016-09-19T06:27:30.155Z,0
2016-09-19T06:28:30.499Z,5
2016-09-19T06:29:30.194Z,5
2016-09-19T06:30:30.223Z,5
2016-09-19T06:31:30.231Z,5
2016-09-19T06:32:30.257Z,5
2016-09-19T06:33:30.275Z,5
2016-09-19T06:34:30.309Z,5
2016-09-19T06:35:30.331Z,5
2016-09-19T06:36:30.352Z,10
2016-09-19T06:37:30.363Z,10
2016-09-19T06:38:30.388Z,5
2016-09-19T06:39:30.410Z,5
2016-09-19T06:40:30.433Z,5
2016-09-19T06:41:30.463Z,5
2016-09-19T06:42:30.487Z,5
2016-09-19T06:43:30.525Z,5
2016-09-19T06:44:30.516Z,5
2016-09-19T06:45:30.548Z,5
2016-09-19T06:46:30.565Z,5
2016-09-19T06:47:30.585Z,5
2016-09-19T06:48:30.604Z,5
2016-09-19T06:49:30.620Z,5
2016-09-19T06:50:30.670Z,10
2016-09-19T06:51:30.678Z,5
2016-09-19T06:52:30.690Z,5
2016-09-19T06:53:30.762Z,10
2016-09-19T06:54:30.736Z,10
2016-09-19T06:55:30.762Z,5
2016-09-19T06:56:30.780Z,5
2016-09-19T06:57:30.803Z,5
2016-09-19T06:58:30.841Z,5
2016-09-19T06:59:30.841Z,10
2016-09-19T07:00:30.868Z,10
2016-09-19T07:01:30.887Z,10
2016-09-19T07:02:30.913Z,10
2016-09-19T07:03:30.932Z,10
2016-09-19T07:04:30.952Z,10
2016-09-19T07:05:30.976Z,10
2016-09-19T07:06:31.002Z,10
2016-09-19T07:07:31.134Z,10
2016-09-19T07:08:31.139Z,10
2016-09-19T07:09:31.175Z,10
2016-09-19T07:10:31.312Z,10
2016-09-19T07:11:31.307Z,10
2016-09-19T07:12:31.332Z,10
2016-09-19T07:13:31.332Z,10
2016-09-19T07:14:31.342Z,10
2016-09-19T07:15:31.355Z,10
2016-09-19T07:16:31.351Z,5
2016-09-19T07:17:31.357Z,5
2016-09-19T07:18:31.568Z,5
2016-09-19T07:19:31.384Z,5
2016-09-19T07:20:31.518Z,10
2016-09-19T07:21:31.425Z,10
2016-09-19T07:22:31.434Z,10
2016-09-19T07:23:31.440Z,10
2016-09-19T07:24:31.447Z,10
2016-09-19T07:25:31.489Z,10
2016-09-19T07:26:31.570Z,10
2016-09-19T07:27:31.527Z,10
2016-09-19T07:28:31.536Z,10
2016-09-19T07:29:31.547Z,15
2016-09-19T07:30:31.552Z,15
2016-09-19T07:31:31.554Z,15
2016-09-19T07:32:31.865Z,15
2016-09-19T07:33:31.640Z,15
2016-09-19T07:34:31.601Z,15
2016-09-19T07:35:31.626Z,15
2016-09-19T07:36:31.649Z,10
2016-09-19T07:37:31.667Z,10
2016-09-19T07:38:31.693Z,10
2016-09-19T07:39:31.708Z,10
2016-09-19T07:40:31.730Z,10
2016-09-19T07:41:31.761Z,10
2016-09-19T07:42:31.771Z,10
2016-09-19T07:43:31.811Z,10
2016-09-19T07:44:31.820Z,10
2016-09-19T07:45:31.843Z,10
2016-09-19T07:46:31.867Z,10
2016-09-19T07:47:31.880Z,10
2016-09-19T07:48:31.926Z,10
2016-09-19T07:49:31.925Z,15
2016-09-19T07:50:31.960Z,15
2016-09-19T07:51:31.969Z,15
2016-09-19T07:52:31.992Z,15
2016-09-19T07:53:32.011Z,15
2016-09-19T07:54:32.036Z,15
2016-09-19T07:55:32.132Z,15
2016-09-19T07:56:32.085Z,15
2016-09-19T07:57:32.105Z,15
2016-09-19T07:58:32.126Z,15
2016-09-19T07:59:32.163Z,15
2016-09-19T08:00:32.167Z,15
2016-09-19T08:01:32.191Z,15
2016-09-19T08:02:32.206Z,15
2016-09-19T08:03:32.237Z,15
2016-09-19T08:04:32.261Z,15
2016-09-19T08:05:32.279Z,15
2016-09-19T08:06:32.304Z,15
2016-09-19T08:07:32.319Z,15
2016-09-19T08:08:32.350Z,15
2016-09-19T08:09:32.364Z,15
2016-09-19T08:10:32.395Z,15
2016-09-19T08:11:32.409Z,15
2016-09-19T08:12:32.428Z,15
2016-09-19T08:13:32.465Z,15
2016-09-19T08:14:32.476Z,15
2016-09-19T08:15:32.498Z,15
2016-09-19T08:16:32.522Z,15
2016-09-19T08:17:32.542Z,15
2016-09-19T08:18:32.568Z,15
2016-09-19T08:19:32.592Z,15
2016-09-19T08:20:32.607Z,15
2016-09-19T08:21:32.639Z,15
2016-09-19T08:22:32.653Z,15
2016-09-19T08:23:32.673Z,15
2016-09-19T08:24:32.689Z,15
2016-09-19T08:25:32.717Z,15
2016-09-19T08:26:32.745Z,15
2016-09-19T08:27:32.758Z,15
2016-09-19T08:28:32.790Z,15
2016-09-19T08:29:32.805Z,15
2016-09-19T08:30:32.841Z,15
2016-09-19T08:31:32.844Z,15
2016-09-19T08:32:33.193Z,15
2016-09-19T08:33:33.203Z,15
2016-09-19T08:34:32.922Z,15
2016-09-19T08:35:32.945Z,15
2016-09-19T08:36:32.967Z,15
2016-09-19T08:37:32.986Z,15
2016-09-19T08:38:33.014Z,15
2016-09-19T08:39:33.808Z,15
2016-09-19T08:40:33.167Z,15
2016-09-19T08:41:33.180Z,15
2016-09-19T08:42:33.184Z,15
2016-09-19T08:43:33.230Z,15
2016-09-19T08:44:33.229Z,15
2016-09-19T08:45:33.397Z,15
2016-09-19T08:46:33.394Z,15
2016-09-19T08:47:33.409Z,15
2016-09-19T08:48:33.413Z,15
2016-09-19T08:49:33.460Z,10
2016-09-19T08:50:33.766Z,10
2016-09-19T08:51:33.470Z,10
2016-09-19T08:52:33.486Z,15
2016-09-19T08:53:33.487Z,15
2016-09-19T08:54:33.497Z,15
2016-09-19T08:55:33.501Z,15
2016-09-19T08:56:33.509Z,20
2016-09-19T08:57:33.512Z,20
2016-09-19T08:58:33.523Z,15
2016-09-19T08:59:33.576Z,15
2016-09-19T09:00:33.567Z,15
2016-09-19T09:01:33.606Z,15
2016-09-19T09:02:33.549Z,15
2016-09-19T09:03:33.579Z,10
2016-09-19T09:04:33.586Z,10
2016-09-19T09:05:33.606Z,15
2016-09-19T09:06:33.628Z,15
2016-09-19T09:07:33.735Z,15
2016-09-19T09:08:33.834Z,15
2016-09-19T09:09:33.710Z,15
2016-09-19T09:10:34.004Z,15
2016-09-19T09:11:34.057Z,20
2016-09-19T09:12:33.934Z,20
2016-09-19T09:13:33.789Z,20
2016-09-19T09:14:33.799Z,20
2016-09-19T09:15:33.833Z,20
2016-09-19T09:16:33.854Z,20
2016-09-19T09:17:33.879Z,20
2016-09-19T09:18:33.898Z,20
2016-09-19T09:19:33.925Z,20
2016-09-19T09:20:33.949Z,15
2016-09-19T09:21:33.960Z,15
2016-09-19T09:22:33.987Z,15
2016-09-19T09:23:34.003Z,15
2016-09-19T09:24:34.032Z,20
2016-09-19T09:25:34.384Z,20
2016-09-19T09:26:34.075Z,20
2016-09-19T09:27:34.097Z,20
2016-09-19T09:28:34.135Z,20
2016-09-19T09:29:34.468Z,25
2016-09-19T09:30:34.166Z,25
2016-09-19T09:31:34.199Z,30
2016-09-19T09:32:34.225Z,30
2016-09-19T09:33:34.229Z,30
2016-09-19T09:34:34.261Z,30
2016-09-19T09:35:34.608Z,30
2016-09-19T09:36:34.304Z,30
2016-09-19T09:37:34.325Z,25
2016-09-19T09:38:34.347Z,30
2016-09-19T09:39:34.368Z,30
2016-09-19T09:40:34.386Z,30
2016-09-19T09:41:34.411Z,30
2016-09-19T09:42:34.434Z,30
2016-09-19T09:43:34.464Z,30
2016-09-19T09:44:34.496Z,30
2016-09-19T09:45:34.505Z,30
2016-09-19T09:46:34.530Z,30
2016-09-19T09:47:34.569Z,30
2016-09-19T09:48:34.582Z,30
2016-09-19T09:49:34.588Z,30
2016-09-19T09:50:34.626Z,30
2016-09-19T09:51:34.637Z,30
2016-09-19T09:52:34.661Z,30
2016-09-19T09:53:34.687Z,30
2016-09-19T09:54:34.709Z,30
2016-09-19T09:55:34.731Z,30
2016-09-19T09:56:34.767Z,30
2016-09-19T09:57:34.773Z,30
2016-09-19T09:58:34.810Z,30
2016-09-19T09:59:34.937Z,30
2016-09-19T10:00:34.961Z,30
2016-09-19T10:01:34.957Z,35
2016-09-19T10:02:34.976Z,35
2016-09-19T10:03:35.285Z,35
2016-09-19T10:04:35.166Z,35
2016-09-19T10:05:35.180Z,35
2016-09-19T10:06:35.093Z,30
2016-09-19T10:07:35.093Z,30
2016-09-19T10:08:35.451Z,30
2016-09-19T10:09:35.243Z,30
2016-09-19T10:10:35.257Z,30
2016-09-19T10:11:35.257Z,30
2016-09-19T10:12:35.267Z,30
2016-09-19T10:13:35.275Z,30
2016-09-19T10:14:35.285Z,30
2016-09-19T10:15:35.290Z,25
2016-09-19T10:16:35.296Z,25
2016-09-19T10:17:35.303Z,25
2016-09-19T10:18:35.352Z,25
2016-09-19T10:19:35.282Z,25
2016-09-19T10:20:35.300Z,25
2016-09-19T10:21:35.331Z,30
2016-09-19T10:22:35.353Z,30
2016-09-19T10:23:35.366Z,30
2016-09-19T10:24:35.396Z,30
2016-09-19T10:25:35.421Z,35
2016-09-19T10:26:35.435Z,35
2016-09-19T10:27:35.466Z,35
2016-09-19T10:28:35.490Z,40
2016-09-19T10:29:35.510Z,40
2016-09-19T10:30:35.550Z,40
2016-09-19T10:31:35.567Z,40
2016-09-19T10:32:35.584Z,40
2016-09-19T10:33:35.596Z,40
2016-09-19T10:34:35.625Z,40
2016-09-19T10:35:35.648Z,40
2016-09-19T10:36:35.670Z,40
2016-09-19T10:37:35.695Z,40
2016-09-19T10:38:35.724Z,45
2016-09-19T10:39:35.734Z,40
2016-09-19T10:40:35.757Z,40
2016-09-19T10:41:35.791Z,40
2016-09-19T10:42:35.812Z,40
2016-09-19T10:43:35.836Z,40
2016-09-19T10:44:35.857Z,45
2016-09-19T10:45:35.887Z,45
2016-09-19T10:46:35.904Z,40
2016-09-19T10:47:35.929Z,40
2016-09-19T10:48:35.951Z,45
2016-09-19T10:49:35.979Z,45
2016-09-19T10:50:35.997Z,45
2016-09-19T10:51:36.029Z,45
2016-09-19T10:52:36.040Z,45
2016-09-19T10:53:36.113Z,45
2016-09-19T10:54:36.092Z,45
2016-09-19T10:55:36.118Z,45
2016-09-19T10:56:36.145Z,45
2016-09-19T10:57:36.157Z,45
2016-09-19T10:58:36.183Z,45
2016-09-19T10:59:36.203Z,40
2016-09-19T11:00:36.233Z,40
2016-09-19T11:01:36.251Z,40
2016-09-19T11:02:36.278Z,40
2016-09-19T11:03:36.303Z,40
2016-09-19T11:04:36.327Z,45
2016-09-19T11:05:36.347Z,45
2016-09-19T11:06:36.380Z,45
2016-09-19T11:07:36.397Z,45
2016-09-19T11:08:36.410Z,45
2016-09-19T11:09:36.439Z,45
2016-09-19T11:10:36.479Z,45
2016-09-19T11:11:36.495Z,45
2016-09-19T11:12:36.512Z,40
2016-09-19T11:13:36.534Z,40
2016-09-19T11:14:36.568Z,40
2016-09-19T11:15:36.582Z,35
2016-09-19T11:16:36.614Z,35
2016-09-19T11:17:36.638Z,35
2016-09-19T11:18:36.673Z,35
2016-09-19T11:19:36.680Z,35
2016-09-19T11:20:36.709Z,35
2016-09-19T11:21:36.731Z,35
2016-09-19T11:22:36.752Z,35
2016-09-19T11:23:36.773Z,35
2016-09-19T11:24:36.804Z,35
2016-09-19T11:25:36.827Z,35
2016-09-19T11:26:37.302Z,35
2016-09-19T11:27:36.999Z,40
2016-09-19T11:28:36.984Z,40
2016-09-19T11:29:37.028Z,40
2016-09-19T11:30:37.035Z,40
2016-09-19T11:31:37.192Z,40
2016-09-19T11:32:37.200Z,40
2016-09-19T11:33:37.216Z,45
2016-09-19T11:34:37.220Z,45
2016-09-19T11:35:37.545Z,45
2016-09-19T11:36:37.273Z,45
2016-09-19T11:37:37.282Z,45
2016-09-19T11:38:37.289Z,45
2016-09-19T11:39:37.301Z,45
2016-09-19T11:40:37.510Z,45
2016-09-19T11:41:37.301Z,45
2016-09-19T11:42:37.327Z,45
2016-09-19T11:43:37.322Z,45
2016-09-19T11:44:37.369Z,50
2016-09-19T11:45:37.412Z,45
2016-09-19T11:46:37.405Z,45
2016-09-19T11:47:37.412Z,45
2016-09-19T11:49:37.407Z,45
2016-09-19T11:50:37.431Z,45
2016-09-19T11:51:37.455Z,40
2016-09-19T11:52:37.480Z,40
2016-09-19T11:53:37.511Z,35
2016-09-19T11:54:37.676Z,35
2016-09-19T11:55:37.557Z,35
2016-09-19T11:56:37.784Z,40
2016-09-19T11:57:37.908Z,45
2016-09-19T11:58:37.628Z,40
2016-09-19T11:59:37.651Z,45
2016-09-19T12:00:37.674Z,40
2016-09-19T12:01:38.058Z,35
2016-09-19T12:02:37.729Z,35
2016-09-19T12:03:37.750Z,30
2016-09-19T12:04:37.774Z,30
2016-09-19T12:05:37.796Z,30
2016-09-19T12:06:37.822Z,30
2016-09-19T12:07:37.852Z,35
2016-09-19T12:08:37.875Z,40
2016-09-19T12:09:37.899Z,45
2016-09-19T12:10:37.926Z,45
2016-09-19T12:11:37.953Z,45
2016-09-19T12:12:37.971Z,45
2016-09-19T12:13:38.001Z,45
2016-09-19T12:14:38.016Z,50
2016-09-19T12:15:38.049Z,50
2016-09-19T12:16:38.084Z,50
2016-09-19T12:17:38.094Z,50
2016-09-19T12:18:38.117Z,45
2016-09-19T12:19:38.151Z,45
2016-09-19T12:20:38.173Z,50
2016-09-19T12:22:38.222Z,50
2016-09-19T12:23:38.246Z,50
2016-09-19T12:24:38.279Z,50
2016-09-19T12:25:38.296Z,45
2016-09-19T12:26:38.324Z,45
2016-09-19T12:27:38.358Z,45
2016-09-19T12:28:38.379Z,40
2016-09-19T12:29:38.395Z,40
2016-09-19T12:30:38.423Z,40
2016-09-19T12:31:38.453Z,40
2016-09-19T12:32:38.475Z,35
2016-09-19T12:33:38.499Z,30
2016-09-19T12:34:39.065Z,25
2016-09-19T12:35:38.546Z,25
2016-09-19T12:36:38.572Z,30
2016-09-19T12:37:38.604Z,30
2016-09-19T12:38:38.632Z,25
2016-09-19T12:39:38.655Z,25
2016-09-19T12:40:38.676Z,30
2016-09-19T12:41:38.703Z,35
2016-09-19T12:42:38.728Z,35
2016-09-19T12:43:38.756Z,40
2016-09-19T12:44:38.896Z,40
2016-09-19T12:45:38.894Z,45
2016-09-19T12:46:39.051Z,50
2016-09-19T12:47:39.055Z,50
2016-09-19T12:48:39.062Z,45
2016-09-19T12:49:39.068Z,40
2016-09-19T12:50:39.078Z,45
2016-09-19T12:51:39.088Z,45
2016-09-19T12:52:39.087Z,50
2016-09-19T12:53:39.322Z,50
2016-09-19T12:54:39.240Z,50
2016-09-19T12:55:39.248Z,45
2016-09-19T12:56:39.266Z,50
2016-09-19T12:57:39.261Z,50
2016-09-19T12:58:39.272Z,50
2016-09-19T12:59:39.247Z,45
2016-09-19T13:00:39.257Z,45
2016-09-19T13:01:39.250Z,45
2016-09-19T13:02:39.258Z,40
2016-09-19T13:03:39.276Z,45
2016-09-19T13:04:39.298Z,50
2016-09-19T13:05:39.334Z,40
2016-09-19T13:06:39.350Z,35
2016-09-19T13:07:39.377Z,30
2016-09-19T13:08:39.400Z,25
2016-09-19T13:09:39.425Z,25
2016-09-19T13:10:39.459Z,25
2016-09-19T13:11:39.480Z,20
2016-09-19T13:12:39.528Z,25
2016-09-19T13:13:39.525Z,25
2016-09-19T13:14:39.559Z,20
2016-09-19T13:15:39.607Z,20
2016-09-19T13:16:39.921Z,20
2016-09-19T13:17:39.642Z,20
2016-09-19T13:18:39.665Z,25
2016-09-19T13:19:39.689Z,25
2016-09-19T13:20:39.723Z,30
2016-09-19T13:21:39.744Z,30
2016-09-19T13:22:39.770Z,35
2016-09-19T13:23:39.813Z,35
2016-09-19T13:24:39.827Z,40
2016-09-19T13:25:39.854Z,40
2016-09-19T13:26:39.871Z,40
2016-09-19T13:27:39.900Z,40
2016-09-19T13:28:39.922Z,35
2016-09-19T13:29:39.948Z,40
2016-09-19T13:30:39.980Z,35
2016-09-19T13:31:40.012Z,35
2016-09-19T13:32:40.343Z,40
2016-09-19T13:33:40.049Z,40
2016-09-19T13:34:40.390Z,35
2016-09-19T13:35:40.110Z,35
2016-09-19T13:36:40.135Z,30
2016-09-19T13:37:40.158Z,30
2016-09-19T13:38:40.184Z,25
2016-09-19T13:39:40.531Z,30
2016-09-19T13:40:40.249Z,30
2016-09-19T13:41:40.274Z,35
2016-09-19T13:42:40.290Z,35
2016-09-19T13:43:40.316Z,30
2016-09-19T13:44:40.349Z,30
2016-09-19T13:45:40.367Z,30
2016-09-19T13:46:40.401Z,30
2016-09-19T13:47:40.749Z,25
2016-09-19T13:48:40.448Z,25
2016-09-19T13:49:40.479Z,20
2016-09-19T13:50:40.515Z,20
2016-09-19T13:51:40.851Z,15
2016-09-19T13:52:40.565Z,15
2016-09-19T13:53:40.580Z,15
2016-09-19T13:54:40.615Z,15
2016-09-19T13:55:40.638Z,15
2016-09-19T13:56:40.671Z,20
2016-09-19T13:57:40.698Z,20
2016-09-19T13:58:40.718Z,20
2016-09-19T13:59:40.745Z,20
2016-09-19T14:00:40.775Z,20
2016-09-19T14:01:40.794Z,20
2016-09-19T14:02:40.823Z,15
2016-09-19T14:03:40.957Z,15
2016-09-19T14:04:40.960Z,15
2016-09-19T14:05:41.127Z,15
2016-09-19T14:06:41.127Z,20
2016-09-19T14:07:41.138Z,20
2016-09-19T14:08:41.142Z,20
2016-09-19T14:09:41.152Z,20
2016-09-19T14:10:41.166Z,20
2016-09-19T14:11:41.162Z,25
2016-09-19T14:12:41.177Z,25
2016-09-19T14:13:41.309Z,25
2016-09-19T14:14:41.321Z,25
2016-09-19T14:15:41.344Z,25
2016-09-19T14:16:41.284Z,30
2016-09-19T14:17:41.327Z,30
2016-09-19T14:18:41.312Z,30
2016-09-19T14:19:41.324Z,30
2016-09-19T14:20:41.329Z,25
2016-09-19T14:21:41.337Z,25
2016-09-19T14:22:41.369Z,25
2016-09-19T14:23:41.375Z,25
2016-09-19T14:24:41.407Z,25
2016-09-19T14:25:41.454Z,30
2016-09-19T14:26:41.458Z,25
2016-09-19T14:27:41.489Z,25
2016-09-19T14:28:41.512Z,35
2016-09-19T14:29:41.540Z,20
2016-09-19T14:30:41.890Z,25
2016-09-19T14:31:41.594Z,25
2016-09-19T14:32:41.621Z,25